« Back
NWS Peachtree City, Ga » Text Product » CSG Terminal Aerodrome Forecast


Printer-friendly Version
Current Version              Previous Versions:   1  2  3  4  5  6  7  8  9  

Terminal Aerodrome Forecast

456
FTUS42 KFFC 221100
TAFCSG
TAF
KCSG 221126Z 2212/2312 35003KT P6SM FEW250
     FM221500 33006KT P6SM FEW040
     FM221700 32008KT P6SM SCT050
     FM230100 29004KT P6SM FEW070 SCT250=



USA.gov is the U.S. government's official web portal to all federal, state and local government web resources and services.